Fox Island, Washington
Current Conditions -  °F | °C
As of 8:00 PM on Wednesday 17 Dec 2014 (Local Time) from KTIW Reporting Station
Light Rain Light Rain  
Wind Chill:   Ceiling: 2600
Heat Index:   Visibility: 6mi
Dew Point:   Wind: 0mph
Humidity: 97%   Direction: NA
Pressure: 29.91"   Gusts: NA
Location:  47.25°N, 122.63°W
Report Text: KTIW 180400Z AUTO 00000KT 6SM -RA BR OVC026 07/07 A2991 RMK AO2 P0000 T00720067
Loading
Personal Weather Stations






























Interactive Weather Map New forecast layout! Learn more

10-Day Weather Forecast

Advertisements
Track Severe Weather on mobile